Terminal Aerodrome Forecast
Issued by NWS Jacksonville, FL

Home | Current Version | Previous Version | Text Only | Print | Product List | Glossary On
Versions: 1 2 3 4 5 6 7 8 9 10 11 12 13 14 15 16
000
FTUS42 KJAX 022000 AAB
TAFSSI
TAF AMD
KSSI 022047Z 0221/0318 VRB06KT 6SM -SHRA SCT035 BKN250
      TEMPO 0221/0222 4SM TSRA OVC035CB
     FM030100 19006KT P6SM SCT250
     FM031400 21004KT P6SM SCT030 SCT250=

USA.gov is the U.S. government's official web portal to all federal, state and local government web resources and services.